createdAt,value
2024-02-27T00:00:45.122Z,16.03
2024-02-27T00:03:12.814Z,21.93
2024-02-27T00:05:40.479Z,20.17
2024-02-27T00:08:08.973Z,21.10
2024-02-27T00:10:36.673Z,19.60
2024-02-27T00:13:05.135Z,21.40
2024-02-27T00:15:32.898Z,19.90
2024-02-27T00:18:02.218Z,20.90
2024-02-27T00:20:29.923Z,18.50
2024-02-27T00:22:57.570Z,20.13
2024-02-27T00:25:31.331Z,19.40
2024-02-27T00:27:59.012Z,19.40
2024-02-27T00:30:26.746Z,18.33
2024-02-27T00:32:54.732Z,19.50
2024-02-27T00:35:23.784Z,19.73
2024-02-27T00:37:51.437Z,19.77
2024-02-27T00:40:19.416Z,19.03
2024-02-27T00:42:47.401Z,19.90
2024-02-27T00:45:15.173Z,19.23
2024-02-27T00:47:42.926Z,19.37
2024-02-27T00:50:11.017Z,17.33
2024-02-27T00:52:40.067Z,20.13
2024-02-27T00:55:08.408Z,19.80
2024-02-27T00:57:36.435Z,20.47
2024-02-27T01:00:10.075Z,19.97
2024-02-27T01:02:38.646Z,18.27
2024-02-27T01:05:07.555Z,19.20
2024-02-27T01:07:35.645Z,18.80
2024-02-27T01:10:07.232Z,19.70
2024-02-27T01:12:34.994Z,19.93
2024-02-27T01:15:03.986Z,19.30
2024-02-27T01:17:32.123Z,19.93
2024-02-27T01:19:59.824Z,19.17
2024-02-27T01:22:28.631Z,18.33
2024-02-27T01:24:56.671Z,19.27
2024-02-27T01:27:25.968Z,18.97
2024-02-27T01:29:54.852Z,20.27
2024-02-27T01:32:22.989Z,19.63
2024-02-27T01:34:51.008Z,18.07
2024-02-27T01:37:19.115Z,20.33
2024-02-27T01:39:47.341Z,19.83
2024-02-27T01:42:15.087Z,18.27
2024-02-27T01:44:50.206Z,20.13
2024-02-27T01:47:19.145Z,19.33
2024-02-27T01:49:48.393Z,18.53
2024-02-27T01:52:17.140Z,18.63
2024-02-27T01:54:46.932Z,18.90
2024-02-27T01:57:16.092Z,18.73
2024-02-27T01:59:45.338Z,19.93
2024-02-27T02:02:15.205Z,20.17
2024-02-27T02:04:42.946Z,17.47
2024-02-27T02:07:11.964Z,19.03
2024-02-27T02:09:40.151Z,17.77
2024-02-27T02:12:08.777Z,17.93
2024-02-27T02:14:36.819Z,17.93
2024-02-27T02:17:06.301Z,20.00
2024-02-27T02:19:34.099Z,18.27
2024-02-27T02:22:03.685Z,19.40
2024-02-27T02:24:32.688Z,19.90
2024-02-27T02:27:01.081Z,19.03
2024-02-27T02:29:29.889Z,17.70
2024-02-27T02:31:57.673Z,19.87
2024-02-27T02:34:25.451Z,17.27
2024-02-27T02:36:53.250Z,16.53
2024-02-27T02:39:22.563Z,16.67
2024-02-27T02:41:50.215Z,17.23
2024-02-27T02:44:17.918Z,16.73
2024-02-27T02:46:45.592Z,16.07
2024-02-27T02:49:13.470Z,15.50
2024-02-27T02:51:41.275Z,17.37
2024-02-27T02:54:08.993Z,17.53
2024-02-27T02:56:38.077Z,16.07
2024-02-27T02:59:06.224Z,18.70
2024-02-27T03:01:33.949Z,18.00
2024-02-27T03:04:01.638Z,18.47
2024-02-27T03:06:29.349Z,19.10
2024-02-27T03:08:57.026Z,18.87
2024-02-27T03:11:24.919Z,18.97
2024-02-27T03:13:53.998Z,19.03
2024-02-27T03:16:21.767Z,18.60
2024-02-27T03:18:49.554Z,19.10
2024-02-27T03:21:17.342Z,20.60
2024-02-27T03:23:45.000Z,21.53
2024-02-27T03:26:17.428Z,20.60
2024-02-27T03:28:45.072Z,22.07
2024-02-27T03:31:14.082Z,21.87
2024-02-27T03:33:42.063Z,20.97
2024-02-27T03:36:10.278Z,21.37
2024-02-27T03:38:37.936Z,20.93
2024-02-27T03:41:05.844Z,20.70
2024-02-27T03:43:33.514Z,20.90
2024-02-27T03:46:01.146Z,20.53
2024-02-27T03:48:30.373Z,20.90
2024-02-27T03:50:58.393Z,21.70
2024-02-27T03:53:26.157Z,20.87
2024-02-27T03:55:53.797Z,20.63
2024-02-27T03:58:21.447Z,18.43
2024-02-27T04:00:49.533Z,18.77
2024-02-27T04:03:17.376Z,20.80
2024-02-27T04:05:46.450Z,20.00
2024-02-27T04:08:14.164Z,19.23
2024-02-27T04:10:42.137Z,19.20
2024-02-27T04:13:09.775Z,20.07
2024-02-27T04:15:37.488Z,17.73
2024-02-27T04:18:07.232Z,16.97
2024-02-27T04:20:34.998Z,15.90
2024-02-27T04:23:04.451Z,16.33
2024-02-27T04:25:33.037Z,17.60
2024-02-27T04:28:00.700Z,16.90
2024-02-27T04:30:28.668Z,15.93
2024-02-27T04:32:56.523Z,16.43
2024-02-27T04:35:24.434Z,18.23
2024-02-27T04:37:52.196Z,18.10
2024-02-27T04:40:21.381Z,17.07
2024-02-27T04:42:49.188Z,17.20
2024-02-27T04:45:17.036Z,18.23
2024-02-27T04:47:44.794Z,17.77
2024-02-27T04:50:12.537Z,19.07
2024-02-27T04:52:40.218Z,18.97
2024-02-27T04:55:08.892Z,17.40
2024-02-27T04:57:37.879Z,18.73
2024-02-27T05:00:07.799Z,19.90
2024-02-27T05:02:35.472Z,19.80
2024-02-27T05:05:03.235Z,19.27
2024-02-27T05:07:30.851Z,18.17
2024-02-27T05:09:58.565Z,18.50
2024-02-27T05:12:26.214Z,17.53
2024-02-27T05:14:55.252Z,17.83
2024-02-27T05:17:22.906Z,17.67
2024-02-27T05:19:50.612Z,16.33
2024-02-27T05:22:18.371Z,16.47
2024-02-27T05:24:46.208Z,15.07
2024-02-27T05:27:14.521Z,16.43
2024-02-27T05:29:42.268Z,17.03
2024-02-27T05:32:11.426Z,14.50
2024-02-27T05:34:39.248Z,15.63
2024-02-27T05:37:07.320Z,15.47
2024-02-27T05:39:35.097Z,14.73
2024-02-27T05:42:02.978Z,15.10
2024-02-27T05:44:30.638Z,15.00
2024-02-27T05:46:58.298Z,16.67
2024-02-27T05:49:27.372Z,15.60
2024-02-27T05:51:55.035Z,15.93
2024-02-27T05:54:22.726Z,15.33
2024-02-27T05:56:50.510Z,16.20
2024-02-27T05:59:18.220Z,16.20
2024-02-27T06:01:45.998Z,16.97
2024-02-27T06:04:13.833Z,17.23
2024-02-27T06:06:42.993Z,16.80
2024-02-27T06:09:10.668Z,16.17
2024-02-27T06:11:38.383Z,16.87
2024-02-27T06:14:05.976Z,16.90
2024-02-27T06:16:34.475Z,16.87
2024-02-27T06:19:02.259Z,16.07
2024-02-27T06:21:47.789Z,15.57
2024-02-27T06:24:17.007Z,17.70
2024-02-27T06:26:44.689Z,18.10
2024-02-27T06:29:12.383Z,18.13
2024-02-27T06:31:40.125Z,17.63
2024-02-27T06:34:07.915Z,17.07
2024-02-27T06:36:35.676Z,18.37
2024-02-27T06:39:03.438Z,18.80
2024-02-27T06:41:32.432Z,18.43
2024-02-27T06:44:00.070Z,17.37
2024-02-27T06:46:27.738Z,18.40
2024-02-27T06:49:03.777Z,18.30
2024-02-27T06:51:39.216Z,19.40
2024-02-27T06:54:07.402Z,18.20
2024-02-27T06:56:36.424Z,19.40
2024-02-27T06:59:04.086Z,20.30
2024-02-27T07:01:32.049Z,19.20
2024-02-27T07:03:59.805Z,18.67
2024-02-27T07:06:27.490Z,18.17
2024-02-27T07:08:56.589Z,18.07
2024-02-27T07:11:24.408Z,17.63
2024-02-27T07:13:53.443Z,18.20
2024-02-27T07:16:21.085Z,19.03
2024-02-27T07:18:49.570Z,19.10
2024-02-27T07:21:20.566Z,17.73
2024-02-27T07:23:48.800Z,17.97
2024-02-27T07:26:16.617Z,19.10
2024-02-27T07:28:48.121Z,18.10
2024-02-27T07:31:19.892Z,19.80
2024-02-27T07:33:47.688Z,17.50
2024-02-27T07:36:15.485Z,18.50
2024-02-27T07:38:43.140Z,18.70
2024-02-27T07:41:11.443Z,17.73
2024-02-27T07:43:39.114Z,17.90
2024-02-27T07:46:08.228Z,17.57
2024-02-27T07:48:37.297Z,19.00
2024-02-27T07:51:05.575Z,18.27
2024-02-27T07:53:34.443Z,18.77
2024-02-27T07:56:02.418Z,18.80
2024-02-27T07:58:30.036Z,19.90
2024-02-27T08:00:57.882Z,19.33
2024-02-27T08:03:25.859Z,18.57
2024-02-27T08:05:55.073Z,18.97
2024-02-27T08:08:23.639Z,18.70
2024-02-27T08:10:51.296Z,19.37
2024-02-27T08:13:23.767Z,18.87
2024-02-27T08:15:52.299Z,19.63
2024-02-27T08:18:20.300Z,18.47
2024-02-27T08:20:49.049Z,17.17
2024-02-27T08:23:18.214Z,20.33
2024-02-27T08:25:46.019Z,18.53
2024-02-27T08:28:13.825Z,18.83
2024-02-27T08:30:41.519Z,18.57
2024-02-27T08:33:09.358Z,18.60
2024-02-27T08:35:37.054Z,17.90
2024-02-27T08:38:05.216Z,18.43
2024-02-27T08:40:34.713Z,18.60
2024-02-27T08:43:02.404Z,19.03
2024-02-27T08:45:31.922Z,18.47
2024-02-27T08:47:59.708Z,18.57
2024-02-27T08:50:27.379Z,18.10
2024-02-27T08:52:55.001Z,19.20
2024-02-27T08:55:26.186Z,18.10
2024-02-27T08:57:55.270Z,19.93
2024-02-27T09:00:24.418Z,19.03
2024-02-27T09:02:52.048Z,19.20
2024-02-27T09:05:19.847Z,18.93
2024-02-27T09:07:47.562Z,18.17
2024-02-27T09:10:15.166Z,19.10
2024-02-27T09:12:43.164Z,16.40
2024-02-27T09:15:12.613Z,17.97
2024-02-27T09:17:40.403Z,17.57
2024-02-27T09:20:10.113Z,17.87
2024-02-27T09:22:39.075Z,17.07
2024-02-27T09:25:07.299Z,16.00
2024-02-27T09:27:36.920Z,16.93
2024-02-27T09:30:05.882Z,16.63
2024-02-27T09:32:34.959Z,16.30
2024-02-27T09:35:02.897Z,16.83
2024-02-27T09:37:30.732Z,15.03
2024-02-27T09:39:59.723Z,16.03
2024-02-27T09:42:35.191Z,14.80
2024-02-27T09:45:07.505Z,15.73
2024-02-27T09:47:40.007Z,17.33
2024-02-27T09:50:10.572Z,18.30
2024-02-27T09:52:39.202Z,16.97
2024-02-27T09:55:09.755Z,16.77
2024-02-27T09:57:38.791Z,16.33
2024-02-27T10:00:07.914Z,16.00
2024-02-27T10:02:39.063Z,14.60
2024-02-27T10:05:08.853Z,13.00
2024-02-27T10:07:36.599Z,12.27
2024-02-27T10:10:04.802Z,14.43
2024-02-27T10:12:32.481Z,13.50
2024-02-27T10:15:00.276Z,15.17
2024-02-27T10:17:29.074Z,16.43
2024-02-27T10:19:58.300Z,15.30
2024-02-27T10:22:26.052Z,16.47
2024-02-27T10:25:05.623Z,15.80
2024-02-27T10:27:33.516Z,15.20
2024-02-27T10:30:01.834Z,15.77
2024-02-27T10:32:33.233Z,15.97
2024-02-27T10:35:04.201Z,14.83
2024-02-27T10:37:33.666Z,14.10
2024-02-27T10:40:02.762Z,14.50
2024-02-27T10:42:30.607Z,14.03
2024-02-27T10:44:58.409Z,15.20
2024-02-27T10:47:27.588Z,14.13
2024-02-27T10:49:56.231Z,14.50
2024-02-27T10:52:27.561Z,13.40
2024-02-27T10:54:57.431Z,12.87
2024-02-27T10:57:26.567Z,13.53
2024-02-27T10:59:54.643Z,13.30
2024-02-27T11:02:22.707Z,13.43
2024-02-27T11:04:53.586Z,12.67
2024-02-27T11:07:22.311Z,11.27
2024-02-27T11:09:53.531Z,13.33
2024-02-27T11:12:22.719Z,12.53
2024-02-27T11:14:58.341Z,13.13
2024-02-27T11:17:29.280Z,13.43
2024-02-27T11:19:57.142Z,13.30
2024-02-27T11:22:25.709Z,12.00
2024-02-27T11:24:55.696Z,13.20
2024-02-27T11:27:25.391Z,11.97
2024-02-27T11:29:54.122Z,11.80
2024-02-27T11:32:22.749Z,12.97
2024-02-27T11:34:50.764Z,12.47
2024-02-27T11:37:21.220Z,13.70
2024-02-27T11:39:49.973Z,13.30
2024-02-27T11:42:29.403Z,12.73
2024-02-27T11:45:05.250Z,12.93
2024-02-27T11:47:42.905Z,12.07
2024-02-27T11:50:11.586Z,12.43
2024-02-27T11:52:43.725Z,13.47
2024-02-27T11:55:13.502Z,11.47
2024-02-27T11:57:42.696Z,11.27
2024-02-27T12:00:15.882Z,12.17
2024-02-27T12:02:49.082Z,12.13
2024-02-27T12:05:18.078Z,12.70
2024-02-27T12:07:46.047Z,11.43
2024-02-27T12:10:15.357Z,11.80
2024-02-27T12:12:46.057Z,11.27
2024-02-27T12:15:14.310Z,11.57
2024-02-27T12:17:42.411Z,11.47
2024-02-27T12:20:11.867Z,13.27
2024-02-27T12:22:41.012Z,12.67
2024-02-27T12:25:10.063Z,13.17
2024-02-27T12:27:38.920Z,12.93
2024-02-27T12:30:11.547Z,12.93
2024-02-27T12:32:40.855Z,13.27
2024-02-27T12:35:10.514Z,13.27
2024-02-27T12:37:42.172Z,13.80
2024-02-27T12:40:13.497Z,13.70
2024-02-27T12:42:42.715Z,12.87
2024-02-27T12:45:13.118Z,12.93
2024-02-27T12:47:41.833Z,13.90
2024-02-27T12:50:11.032Z,14.40
2024-02-27T12:52:39.981Z,13.07
2024-02-27T12:55:09.805Z,13.90
2024-02-27T12:57:37.926Z,13.10
2024-02-27T13:00:09.390Z,12.73
2024-02-27T13:02:38.531Z,11.83
2024-02-27T13:05:09.036Z,12.80
2024-02-27T13:07:39.730Z,14.70
2024-02-27T13:10:08.427Z,13.97
2024-02-27T13:12:36.130Z,13.50
2024-02-27T13:15:04.442Z,14.00
2024-02-27T13:17:32.270Z,13.40
2024-02-27T13:20:01.441Z,13.27
2024-02-27T13:22:29.077Z,12.30
2024-02-27T13:24:57.493Z,13.67
2024-02-27T13:27:25.642Z,12.57
2024-02-27T13:29:54.806Z,14.67
2024-02-27T13:32:22.544Z,14.40
2024-02-27T13:34:50.383Z,13.00
2024-02-27T13:37:19.660Z,13.73
2024-02-27T13:39:47.377Z,13.47
2024-02-27T13:42:15.621Z,13.70
2024-02-27T13:44:43.434Z,13.07
2024-02-27T13:47:11.557Z,13.87
2024-02-27T13:49:39.904Z,14.20
2024-02-27T13:52:08.063Z,13.83
2024-02-27T13:54:38.124Z,14.27
2024-02-27T13:57:05.888Z,14.30
2024-02-27T13:59:33.651Z,14.00
2024-02-27T14:02:02.335Z,13.77
2024-02-27T14:04:30.588Z,13.43
2024-02-27T14:06:58.731Z,13.80
2024-02-27T14:09:26.488Z,13.77
2024-02-27T14:11:55.562Z,13.40
2024-02-27T14:14:23.295Z,13.73
2024-02-27T14:16:50.905Z,12.17
2024-02-27T14:19:18.665Z,13.23
2024-02-27T14:21:46.629Z,14.33
2024-02-27T14:24:14.333Z,13.10
2024-02-27T14:26:41.965Z,14.67
2024-02-27T14:29:10.949Z,13.60
2024-02-27T14:31:38.622Z,12.10
2024-02-27T14:34:06.617Z,12.30
2024-02-27T14:36:35.839Z,12.73
2024-02-27T14:39:03.627Z,12.57
2024-02-27T14:41:31.310Z,12.93
2024-02-27T14:43:59.483Z,12.23
2024-02-27T14:46:29.120Z,12.50
2024-02-27T14:48:56.803Z,13.33
2024-02-27T14:51:24.552Z,11.93
2024-02-27T14:53:52.248Z,12.70
2024-02-27T14:56:19.930Z,12.73
2024-02-27T14:58:47.543Z,11.80
2024-02-27T15:01:15.302Z,13.23
2024-02-27T15:03:44.419Z,13.27
2024-02-27T15:06:13.769Z,13.50
2024-02-27T15:08:41.558Z,14.17
2024-02-27T15:11:09.616Z,12.73
2024-02-27T15:13:37.344Z,11.53
2024-02-27T15:16:05.926Z,12.83
2024-02-27T15:18:33.656Z,12.00
2024-02-27T15:21:06.157Z,11.50
2024-02-27T15:23:33.786Z,12.33
2024-02-27T15:26:01.589Z,13.27
2024-02-27T15:28:29.281Z,13.90
2024-02-27T15:30:57.042Z,13.93
2024-02-27T15:33:24.897Z,12.57
2024-02-27T15:35:52.659Z,13.87
2024-02-27T15:38:21.689Z,12.70
2024-02-27T15:40:49.365Z,13.30
2024-02-27T15:43:17.192Z,10.70
2024-02-27T15:45:45.415Z,12.00
2024-02-27T15:48:13.198Z,12.93
2024-02-27T15:50:40.993Z,13.97
2024-02-27T15:53:08.800Z,13.90
2024-02-27T15:55:37.977Z,12.73
2024-02-27T15:58:05.797Z,12.93
2024-02-27T16:00:33.530Z,13.97
2024-02-27T16:03:09.129Z,13.37
2024-02-27T16:05:36.988Z,13.40
2024-02-27T16:08:05.085Z,12.43
2024-02-27T16:10:32.987Z,13.03
2024-02-27T16:13:02.052Z,13.27
2024-02-27T16:15:31.012Z,13.73
2024-02-27T16:18:00.971Z,14.53
2024-02-27T16:20:28.648Z,14.13
2024-02-27T16:22:56.242Z,14.67
2024-02-27T16:25:24.129Z,13.40
2024-02-27T16:27:53.267Z,15.63
2024-02-27T16:30:22.336Z,14.00
2024-02-27T16:32:50.280Z,16.87
2024-02-27T16:35:18.470Z,16.93
2024-02-27T16:37:46.279Z,16.13
2024-02-27T16:40:14.761Z,11.77
2024-02-27T16:42:42.980Z,11.40
2024-02-27T16:45:10.879Z,15.07
2024-02-27T16:47:39.961Z,13.57
2024-02-27T16:50:08.308Z,13.70
2024-02-27T16:52:36.035Z,14.70
2024-02-27T16:55:03.813Z,14.07
2024-02-27T16:57:31.589Z,14.13
2024-02-27T16:59:59.625Z,13.30
2024-02-27T17:02:27.418Z,12.17
2024-02-27T17:04:56.524Z,13.97
2024-02-27T17:07:26.107Z,12.37
2024-02-27T17:09:53.928Z,15.23
2024-02-27T17:12:21.598Z,12.53
2024-02-27T17:14:49.223Z,15.13
2024-02-27T17:17:16.903Z,12.73
2024-02-27T17:19:44.692Z,15.10
2024-02-27T17:22:13.836Z,13.37
2024-02-27T17:24:41.526Z,14.17
2024-02-27T17:27:10.320Z,14.60
2024-02-27T17:29:37.979Z,14.10
2024-02-27T17:32:06.336Z,15.67
2024-02-27T17:34:34.245Z,15.27
2024-02-27T17:37:03.708Z,15.27
2024-02-27T17:39:34.021Z,14.50
2024-02-27T17:42:01.659Z,13.43
2024-02-27T17:44:30.495Z,13.93
2024-02-27T17:46:58.157Z,13.43
2024-02-27T17:49:25.834Z,12.93
2024-02-27T17:51:53.706Z,12.40
2024-02-27T17:54:21.429Z,13.23
2024-02-27T17:56:50.968Z,14.13
2024-02-27T17:59:18.838Z,15.27
2024-02-27T18:01:46.542Z,14.77
2024-02-27T18:04:14.338Z,13.23
2024-02-27T18:06:42.138Z,14.47
2024-02-27T18:09:10.268Z,14.70
2024-02-27T18:11:37.940Z,12.07
2024-02-27T18:14:07.142Z,14.60
2024-02-27T18:16:34.767Z,15.07
2024-02-27T18:19:03.286Z,14.53
2024-02-27T18:21:31.061Z,13.57
2024-02-27T18:23:58.685Z,15.33
2024-02-27T18:26:26.331Z,15.37
2024-02-27T18:28:53.951Z,14.80
2024-02-27T18:31:23.489Z,14.83
2024-02-27T18:33:51.484Z,14.57
2024-02-27T18:36:19.192Z,13.93
2024-02-27T18:38:46.876Z,15.20
2024-02-27T18:41:14.766Z,15.43
2024-02-27T18:43:42.494Z,14.87
2024-02-27T18:46:12.419Z,17.97
2024-02-27T18:48:41.664Z,16.03
2024-02-27T18:51:11.561Z,16.30
2024-02-27T18:53:40.464Z,14.50
2024-02-27T18:56:08.839Z,13.77
2024-02-27T18:58:36.608Z,15.13
2024-02-27T19:01:05.096Z,21.03
2024-02-27T19:03:33.237Z,16.33
2024-02-27T19:06:04.602Z,14.70
2024-02-27T19:08:32.328Z,16.50
2024-02-27T19:11:01.240Z,15.63
2024-02-27T19:13:29.350Z,14.90
2024-02-27T19:15:57.111Z,16.10
2024-02-27T19:18:25.027Z,13.83
2024-02-27T19:20:52.777Z,15.80
2024-02-27T19:23:21.758Z,14.30
2024-02-27T19:25:49.672Z,12.67
2024-02-27T19:28:17.326Z,15.00
2024-02-27T19:30:46.817Z,16.10
2024-02-27T19:33:15.591Z,13.77
2024-02-27T19:35:43.875Z,16.23
2024-02-27T19:38:18.340Z,17.53
2024-02-27T19:40:48.551Z,18.07
2024-02-27T19:43:16.729Z,15.67
2024-02-27T19:45:46.039Z,14.60
2024-02-27T19:48:14.014Z,14.60
2024-02-27T19:50:44.469Z,14.67
2024-02-27T19:53:12.130Z,14.50
2024-02-27T19:55:40.748Z,17.17
2024-02-27T19:58:09.784Z,17.07
2024-02-27T20:00:38.163Z,15.53
2024-02-27T20:03:06.819Z,13.63
2024-02-27T20:05:34.989Z,16.10
2024-02-27T20:08:02.840Z,17.53
2024-02-27T20:10:31.149Z,16.20
2024-02-27T20:12:58.824Z,16.77
2024-02-27T20:15:27.912Z,16.40
2024-02-27T20:17:56.312Z,14.77
2024-02-27T20:20:23.976Z,13.83
2024-02-27T20:22:51.677Z,16.53
2024-02-27T20:25:19.554Z,18.50
2024-02-27T20:27:47.511Z,15.70
2024-02-27T20:30:15.520Z,20.47
2024-02-27T20:32:44.870Z,18.20
2024-02-27T20:35:12.551Z,18.73
2024-02-27T20:37:40.271Z,16.53
2024-02-27T20:40:10.221Z,17.07
2024-02-27T20:42:37.905Z,18.13
2024-02-27T20:45:06.758Z,20.20
2024-02-27T20:47:36.210Z,18.17
2024-02-27T20:50:10.640Z,17.67
2024-02-27T20:52:39.096Z,17.53
2024-02-27T20:55:07.863Z,17.97
2024-02-27T20:57:35.702Z,17.73
2024-02-27T21:00:03.954Z,16.93
2024-02-27T21:02:34.335Z,16.90
2024-02-27T21:05:02.032Z,16.37
2024-02-27T21:07:31.298Z,15.83
2024-02-27T21:09:59.054Z,17.57
2024-02-27T21:12:27.053Z,17.13
2024-02-27T21:14:57.030Z,17.27
2024-02-27T21:17:26.844Z,17.60
2024-02-27T21:19:54.616Z,17.33
2024-02-27T21:22:22.244Z,16.10
2024-02-27T21:24:51.328Z,17.37
2024-02-27T21:27:19.490Z,18.73
2024-02-27T21:29:47.178Z,18.53
2024-02-27T21:32:15.773Z,18.73
2024-02-27T21:34:43.749Z,19.63
2024-02-27T21:37:11.460Z,16.30
2024-02-27T21:39:39.213Z,12.37
2024-02-27T21:42:08.926Z,15.93
2024-02-27T21:44:36.688Z,17.00
2024-02-27T21:47:04.371Z,18.63
2024-02-27T21:49:32.247Z,18.17
2024-02-27T21:52:03.543Z,18.40
2024-02-27T21:54:32.153Z,17.53
2024-02-27T21:56:59.839Z,17.03
2024-02-27T21:59:28.812Z,16.77
2024-02-27T22:01:56.499Z,19.20
2024-02-27T22:04:24.243Z,19.07
2024-02-27T22:06:51.875Z,16.70
2024-02-27T22:09:19.649Z,16.73
2024-02-27T22:11:47.499Z,19.53
2024-02-27T22:14:15.154Z,20.57
2024-02-27T22:16:44.182Z,20.07
2024-02-27T22:19:12.170Z,20.17
2024-02-27T22:21:40.197Z,19.20
2024-02-27T22:24:08.270Z,20.87
2024-02-27T22:26:37.128Z,19.53
2024-02-27T22:29:04.791Z,19.20
2024-02-27T22:31:32.536Z,18.97
2024-02-27T22:34:03.022Z,20.07
2024-02-27T22:36:30.825Z,20.70
2024-02-27T22:38:58.467Z,23.20
2024-02-27T22:41:26.094Z,22.00
2024-02-27T22:43:53.705Z,21.63
2024-02-27T22:46:25.720Z,24.30
2024-02-27T22:48:53.601Z,25.30
2024-02-27T22:51:22.753Z,23.50
2024-02-27T22:53:50.770Z,21.67
2024-02-27T22:56:18.456Z,24.40
2024-02-27T22:58:46.131Z,24.13
2024-02-27T23:01:14.091Z,22.73
2024-02-27T23:03:41.776Z,23.37
2024-02-27T23:06:09.504Z,24.20
2024-02-27T23:08:38.657Z,24.23
2024-02-27T23:11:06.562Z,23.80
2024-02-27T23:13:34.394Z,24.47
2024-02-27T23:16:02.241Z,24.77
2024-02-27T23:18:29.869Z,24.93
2024-02-27T23:20:57.599Z,26.60
2024-02-27T23:23:25.308Z,24.87
2024-02-27T23:25:54.284Z,25.60
2024-02-27T23:28:25.394Z,25.27
2024-02-27T23:30:53.912Z,25.40
2024-02-27T23:33:21.744Z,26.37
2024-02-27T23:35:49.731Z,26.27
2024-02-27T23:38:18.416Z,25.27
2024-02-27T23:40:47.051Z,26.13
2024-02-27T23:43:16.175Z,25.67
2024-02-27T23:45:44.078Z,26.37
2024-02-27T23:48:11.835Z,27.70
2024-02-27T23:50:39.528Z,26.30
2024-02-27T23:53:07.274Z,27.47
2024-02-27T23:55:35.412Z,26.40
2024-02-27T23:58:03.480Z,26.37
